sensor_id;sensor_type;location;lat;lon;timestamp;temperature;humidity
68450;SHT30;67758;39.572;2.652;2023-12-20T00:01:01;9.53;67.72
68450;SHT30;67758;39.572;2.652;2023-12-20T00:03:45;9.39;67.65
68450;SHT30;67758;39.572;2.652;2023-12-20T00:06:30;9.43;67.77
68450;SHT30;67758;39.572;2.652;2023-12-20T00:09:14;9.70;66.32
68450;SHT30;67758;39.572;2.652;2023-12-20T00:11:59;9.67;67.34
68450;SHT30;67758;39.572;2.652;2023-12-20T00:14:43;9.66;66.94
68450;SHT30;67758;39.572;2.652;2023-12-20T00:17:28;9.57;67.19
68450;SHT30;67758;39.572;2.652;2023-12-20T00:20:12;9.63;67.32
68450;SHT30;67758;39.572;2.652;2023-12-20T00:22:57;9.59;67.66
68450;SHT30;67758;39.572;2.652;2023-12-20T00:25:41;9.72;67.51
68450;SHT30;67758;39.572;2.652;2023-12-20T00:28:26;9.64;67.19
68450;SHT30;67758;39.572;2.652;2023-12-20T00:31:10;9.73;66.32
68450;SHT30;67758;39.572;2.652;2023-12-20T00:33:55;9.66;66.48
68450;SHT30;67758;39.572;2.652;2023-12-20T00:36:41;9.64;66.94
68450;SHT30;67758;39.572;2.652;2023-12-20T00:39:26;9.53;67.04
68450;SHT30;67758;39.572;2.652;2023-12-20T00:42:10;9.50;67.45
68450;SHT30;67758;39.572;2.652;2023-12-20T00:44:55;9.38;68.04
68450;SHT30;67758;39.572;2.652;2023-12-20T00:47:40;9.29;67.27
68450;SHT30;67758;39.572;2.652;2023-12-20T00:50:24;9.28;68.03
68450;SHT30;67758;39.572;2.652;2023-12-20T00:53:08;9.31;68.82
68450;SHT30;67758;39.572;2.652;2023-12-20T00:55:53;9.25;69.08
68450;SHT30;67758;39.572;2.652;2023-12-20T00:58:37;9.44;68.91
68450;SHT30;67758;39.572;2.652;2023-12-20T01:01:22;9.43;68.40
68450;SHT30;67758;39.572;2.652;2023-12-20T01:04:06;9.66;67.95
68450;SHT30;67758;39.572;2.652;2023-12-20T01:06:52;9.64;68.47
68450;SHT30;67758;39.572;2.652;2023-12-20T01:09:36;9.54;67.96
68450;SHT30;67758;39.572;2.652;2023-12-20T01:12:21;9.50;67.72
68450;SHT30;67758;39.572;2.652;2023-12-20T01:15:06;9.42;67.41
68450;SHT30;67758;39.572;2.652;2023-12-20T01:17:50;9.42;67.98
68450;SHT30;67758;39.572;2.652;2023-12-20T01:20:35;9.39;68.56
68450;SHT30;67758;39.572;2.652;2023-12-20T01:23:20;9.31;67.32
68450;SHT30;67758;39.572;2.652;2023-12-20T01:26:04;9.49;68.15
68450;SHT30;67758;39.572;2.652;2023-12-20T01:28:49;9.32;66.02
68450;SHT30;67758;39.572;2.652;2023-12-20T01:31:34;9.16;65.85
68450;SHT30;67758;39.572;2.652;2023-12-20T01:34:18;9.21;67.07
68450;SHT30;67758;39.572;2.652;2023-12-20T01:37:02;9.08;66.93
68450;SHT30;67758;39.572;2.652;2023-12-20T01:39:47;8.92;65.64
68450;SHT30;67758;39.572;2.652;2023-12-20T01:42:31;8.92;65.22
68450;SHT30;67758;39.572;2.652;2023-12-20T01:45:16;9.12;66.38
68450;SHT30;67758;39.572;2.652;2023-12-20T01:48:00;9.02;64.45
68450;SHT30;67758;39.572;2.652;2023-12-20T01:50:46;9.14;65.86
68450;SHT30;67758;39.572;2.652;2023-12-20T01:53:31;8.97;64.85
68450;SHT30;67758;39.572;2.652;2023-12-20T01:56:16;9.01;65.51
68450;SHT30;67758;39.572;2.652;2023-12-20T01:59:01;8.93;64.96
68450;SHT30;67758;39.572;2.652;2023-12-20T02:01:46;8.89;64.66
68450;SHT30;67758;39.572;2.652;2023-12-20T02:04:31;8.98;64.99
68450;SHT30;67758;39.572;2.652;2023-12-20T02:07:15;8.85;64.59
68450;SHT30;67758;39.572;2.652;2023-12-20T02:09:59;8.92;64.84
68450;SHT30;67758;39.572;2.652;2023-12-20T02:12:47;9.09;65.26
68450;SHT30;67758;39.572;2.652;2023-12-20T02:15:32;9.08;65.08
68450;SHT30;67758;39.572;2.652;2023-12-20T02:18:16;9.02;65.40
68450;SHT30;67758;39.572;2.652;2023-12-20T02:21:01;9.02;65.21
68450;SHT30;67758;39.572;2.652;2023-12-20T02:23:45;8.92;65.28
68450;SHT30;67758;39.572;2.652;2023-12-20T02:26:32;8.85;65.80
68450;SHT30;67758;39.572;2.652;2023-12-20T02:29:16;8.84;66.48
68450;SHT30;67758;39.572;2.652;2023-12-20T02:32:01;8.81;66.91
68450;SHT30;67758;39.572;2.652;2023-12-20T02:34:48;8.68;66.87
68450;SHT30;67758;39.572;2.652;2023-12-20T02:37:33;8.72;67.36
68450;SHT30;67758;39.572;2.652;2023-12-20T02:40:18;8.70;66.90
68450;SHT30;67758;39.572;2.652;2023-12-20T02:43:02;8.71;66.67
68450;SHT30;67758;39.572;2.652;2023-12-20T02:45:47;8.74;66.19
68450;SHT30;67758;39.572;2.652;2023-12-20T02:48:31;8.77;66.65
68450;SHT30;67758;39.572;2.652;2023-12-20T02:51:16;8.70;66.73
68450;SHT30;67758;39.572;2.652;2023-12-20T02:54:00;8.63;66.92
68450;SHT30;67758;39.572;2.652;2023-12-20T02:56:45;8.50;67.33
68450;SHT30;67758;39.572;2.652;2023-12-20T02:59:29;8.60;67.70
68450;SHT30;67758;39.572;2.652;2023-12-20T03:02:14;8.56;67.65
68450;SHT30;67758;39.572;2.652;2023-12-20T03:04:58;8.65;67.40
68450;SHT30;67758;39.572;2.652;2023-12-20T03:07:44;8.68;67.37
68450;SHT30;67758;39.572;2.652;2023-12-20T03:10:30;8.75;67.09
68450;SHT30;67758;39.572;2.652;2023-12-20T03:13:14;8.77;67.04
68450;SHT30;67758;39.572;2.652;2023-12-20T03:15:59;8.82;66.94
68450;SHT30;67758;39.572;2.652;2023-12-20T03:18:43;8.91;67.42
68450;SHT30;67758;39.572;2.652;2023-12-20T03:21:28;8.81;67.55
68450;SHT30;67758;39.572;2.652;2023-12-20T03:24:12;8.78;67.39
68450;SHT30;67758;39.572;2.652;2023-12-20T03:26:57;8.82;67.75
68450;SHT30;67758;39.572;2.652;2023-12-20T03:29:41;8.77;67.66
68450;SHT30;67758;39.572;2.652;2023-12-20T03:32:26;8.89;67.78
68450;SHT30;67758;39.572;2.652;2023-12-20T03:35:10;8.88;67.82
68450;SHT30;67758;39.572;2.652;2023-12-20T03:37:55;8.82;67.70
68450;SHT30;67758;39.572;2.652;2023-12-20T03:40:40;9.00;68.11
68450;SHT30;67758;39.572;2.652;2023-12-20T03:43:25;8.89;67.62
68450;SHT30;67758;39.572;2.652;2023-12-20T03:46:09;8.91;67.76
68450;SHT30;67758;39.572;2.652;2023-12-20T03:48:54;9.15;68.46
68450;SHT30;67758;39.572;2.652;2023-12-20T03:51:38;9.33;66.90
68450;SHT30;67758;39.572;2.652;2023-12-20T03:54:24;9.42;66.24
68450;SHT30;67758;39.572;2.652;2023-12-20T03:57:08;9.22;66.62
68450;SHT30;67758;39.572;2.652;2023-12-20T03:59:52;9.02;67.08
68450;SHT30;67758;39.572;2.652;2023-12-20T04:02:38;8.63;67.61
68450;SHT30;67758;39.572;2.652;2023-12-20T04:05:22;8.58;68.28
68450;SHT30;67758;39.572;2.652;2023-12-20T04:08:07;8.78;69.11
68450;SHT30;67758;39.572;2.652;2023-12-20T04:10:51;8.95;69.01
68450;SHT30;67758;39.572;2.652;2023-12-20T04:13:36;9.07;68.68
68450;SHT30;67758;39.572;2.652;2023-12-20T04:16:20;9.31;68.45
68450;SHT30;67758;39.572;2.652;2023-12-20T04:19:05;9.16;68.09
68450;SHT30;67758;39.572;2.652;2023-12-20T04:21:49;9.16;68.21
68450;SHT30;67758;39.572;2.652;2023-12-20T04:24:34;9.14;69.05
68450;SHT30;67758;39.572;2.652;2023-12-20T04:27:18;9.25;69.68
68450;SHT30;67758;39.572;2.652;2023-12-20T04:30:04;9.25;70.55
68450;SHT30;67758;39.572;2.652;2023-12-20T04:32:55;9.16;71.94
68450;SHT30;67758;39.572;2.652;2023-12-20T04:35:40;9.15;73.24
68450;SHT30;67758;39.572;2.652;2023-12-20T04:38:27;9.44;76.01
68450;SHT30;67758;39.572;2.652;2023-12-20T04:41:14;9.50;75.26
68450;SHT30;67758;39.572;2.652;2023-12-20T04:43:59;9.46;75.68
68450;SHT30;67758;39.572;2.652;2023-12-20T04:46:45;9.38;75.52
68450;SHT30;67758;39.572;2.652;2023-12-20T04:49:29;9.40;75.61
68450;SHT30;67758;39.572;2.652;2023-12-20T04:52:14;9.39;75.55
68450;SHT30;67758;39.572;2.652;2023-12-20T04:54:58;9.39;75.23
68450;SHT30;67758;39.572;2.652;2023-12-20T04:57:43;9.40;75.50
68450;SHT30;67758;39.572;2.652;2023-12-20T05:00:27;9.76;78.39
68450;SHT30;67758;39.572;2.652;2023-12-20T05:03:30;9.89;75.39
68450;SHT30;67758;39.572;2.652;2023-12-20T05:06:51;9.76;74.32
68450;SHT30;67758;39.572;2.652;2023-12-20T05:09:39;9.90;75.35
68450;SHT30;67758;39.572;2.652;2023-12-20T05:12:24;9.77;74.56
68450;SHT30;67758;39.572;2.652;2023-12-20T05:15:08;9.70;75.36
68450;SHT30;67758;39.572;2.652;2023-12-20T05:17:53;9.69;75.43
68450;SHT30;67758;39.572;2.652;2023-12-20T05:20:37;10.03;78.89
68450;SHT30;67758;39.572;2.652;2023-12-20T05:23:21;10.14;78.84
68450;SHT30;67758;39.572;2.652;2023-12-20T05:26:05;10.21;77.69
68450;SHT30;67758;39.572;2.652;2023-12-20T05:28:50;10.27;77.57
68450;SHT30;67758;39.572;2.652;2023-12-20T05:31:34;10.18;77.41
68450;SHT30;67758;39.572;2.652;2023-12-20T05:34:19;10.46;80.25
68450;SHT30;67758;39.572;2.652;2023-12-20T05:37:04;10.72;81.71
68450;SHT30;67758;39.572;2.652;2023-12-20T05:39:48;11.05;82.87
68450;SHT30;67758;39.572;2.652;2023-12-20T05:42:33;11.30;82.83
68450;SHT30;67758;39.572;2.652;2023-12-20T05:45:17;11.43;82.42
68450;SHT30;67758;39.572;2.652;2023-12-20T05:48:02;11.44;81.89
68450;SHT30;67758;39.572;2.652;2023-12-20T05:50:51;11.48;81.46
68450;SHT30;67758;39.572;2.652;2023-12-20T05:53:44;11.56;82.24
68450;SHT30;67758;39.572;2.652;2023-12-20T05:56:28;11.54;82.78
68450;SHT30;67758;39.572;2.652;2023-12-20T05:59:12;11.70;84.01
68450;SHT30;67758;39.572;2.652;2023-12-20T06:01:57;11.75;84.48
68450;SHT30;67758;39.572;2.652;2023-12-20T06:04:42;12.01;85.18
68450;SHT30;67758;39.572;2.652;2023-12-20T06:07:27;12.25;85.28
68450;SHT30;67758;39.572;2.652;2023-12-20T06:10:12;12.24;85.09
68450;SHT30;67758;39.572;2.652;2023-12-20T06:12:58;12.19;85.50
68450;SHT30;67758;39.572;2.652;2023-12-20T06:15:44;12.19;85.72
68450;SHT30;67758;39.572;2.652;2023-12-20T06:18:29;12.25;85.90
68450;SHT30;67758;39.572;2.652;2023-12-20T06:21:12;12.25;85.94
68450;SHT30;67758;39.572;2.652;2023-12-20T06:23:59;12.24;86.27
68450;SHT30;67758;39.572;2.652;2023-12-20T06:26:46;12.19;86.35
68450;SHT30;67758;39.572;2.652;2023-12-20T06:29:33;12.26;86.29
68450;SHT30;67758;39.572;2.652;2023-12-20T06:32:18;12.29;86.01
68450;SHT30;67758;39.572;2.652;2023-12-20T06:35:03;12.38;85.58
68450;SHT30;67758;39.572;2.652;2023-12-20T06:37:48;12.40;85.18
68450;SHT30;67758;39.572;2.652;2023-12-20T06:40:33;12.45;84.71
68450;SHT30;67758;39.572;2.652;2023-12-20T06:43:20;12.40;84.21
68450;SHT30;67758;39.572;2.652;2023-12-20T06:46:05;12.40;83.19
68450;SHT30;67758;39.572;2.652;2023-12-20T06:48:49;12.49;81.96
68450;SHT30;67758;39.572;2.652;2023-12-20T06:51:34;12.48;81.56
68450;SHT30;67758;39.572;2.652;2023-12-20T06:54:18;12.39;81.50
68450;SHT30;67758;39.572;2.652;2023-12-20T06:57:03;12.36;81.32
68450;SHT30;67758;39.572;2.652;2023-12-20T06:59:48;12.36;80.47
68450;SHT30;67758;39.572;2.652;2023-12-20T07:02:33;12.45;79.34
68450;SHT30;67758;39.572;2.652;2023-12-20T07:05:17;12.43;78.98
68450;SHT30;67758;39.572;2.652;2023-12-20T07:08:03;12.38;78.78
68450;SHT30;67758;39.572;2.652;2023-12-20T07:10:48;12.49;78.07
68450;SHT30;67758;39.572;2.652;2023-12-20T07:13:32;12.46;78.10
68450;SHT30;67758;39.572;2.652;2023-12-20T07:16:17;12.46;77.70
68450;SHT30;67758;39.572;2.652;2023-12-20T07:19:01;12.50;77.04
68450;SHT30;67758;39.572;2.652;2023-12-20T07:21:46;12.48;76.66
68450;SHT30;67758;39.572;2.652;2023-12-20T07:24:31;12.55;75.92
68450;SHT30;67758;39.572;2.652;2023-12-20T07:27:15;12.53;75.52
68450;SHT30;67758;39.572;2.652;2023-12-20T07:30:00;12.56;74.93
68450;SHT30;67758;39.572;2.652;2023-12-20T07:32:45;12.55;74.69
68450;SHT30;67758;39.572;2.652;2023-12-20T07:35:29;12.53;74.49
68450;SHT30;67758;39.572;2.652;2023-12-20T07:38:13;12.60;73.99
68450;SHT30;67758;39.572;2.652;2023-12-20T07:40:58;12.64;73.77
68450;SHT30;67758;39.572;2.652;2023-12-20T07:43:42;12.63;73.59
68450;SHT30;67758;39.572;2.652;2023-12-20T07:46:26;12.55;73.69
68450;SHT30;67758;39.572;2.652;2023-12-20T07:49:11;12.50;73.55
68450;SHT30;67758;39.572;2.652;2023-12-20T07:51:55;12.48;73.63
68450;SHT30;67758;39.572;2.652;2023-12-20T07:54:40;12.45;73.69
68450;SHT30;67758;39.572;2.652;2023-12-20T07:57:24;12.43;73.49
68450;SHT30;67758;39.572;2.652;2023-12-20T08:00:09;12.48;73.49
68450;SHT30;67758;39.572;2.652;2023-12-20T08:02:53;12.45;73.56
68450;SHT30;67758;39.572;2.652;2023-12-20T08:05:38;12.42;73.62
68450;SHT30;67758;39.572;2.652;2023-12-20T08:08:27;12.46;73.44
68450;SHT30;67758;39.572;2.652;2023-12-20T08:11:10;12.45;73.10
68450;SHT30;67758;39.572;2.652;2023-12-20T08:13:55;12.45;73.05
68450;SHT30;67758;39.572;2.652;2023-12-20T08:16:39;12.52;72.84
68450;SHT30;67758;39.572;2.652;2023-12-20T08:19:26;12.52;72.91
68450;SHT30;67758;39.572;2.652;2023-12-20T08:22:11;12.63;73.39
68450;SHT30;67758;39.572;2.652;2023-12-20T08:24:55;12.63;73.87
68450;SHT30;67758;39.572;2.652;2023-12-20T08:27:40;12.60;74.02
68450;SHT30;67758;39.572;2.652;2023-12-20T08:30:25;12.55;74.40
68450;SHT30;67758;39.572;2.652;2023-12-20T08:33:09;12.53;74.41
68450;SHT30;67758;39.572;2.652;2023-12-20T08:35:59;12.56;74.01
68450;SHT30;67758;39.572;2.652;2023-12-20T08:38:43;12.62;73.39
68450;SHT30;67758;39.572;2.652;2023-12-20T08:41:27;12.66;73.13
68450;SHT30;67758;39.572;2.652;2023-12-20T08:44:12;12.64;73.58
68450;SHT30;67758;39.572;2.652;2023-12-20T08:46:57;12.69;73.20
68450;SHT30;67758;39.572;2.652;2023-12-20T08:49:41;12.72;72.93
68450;SHT30;67758;39.572;2.652;2023-12-20T08:52:25;12.83;72.43
68450;SHT30;67758;39.572;2.652;2023-12-20T08:55:11;12.87;71.83
68450;SHT30;67758;39.572;2.652;2023-12-20T08:57:56;12.94;71.65
68450;SHT30;67758;39.572;2.652;2023-12-20T09:00:41;12.99;71.69
68450;SHT30;67758;39.572;2.652;2023-12-20T09:03:25;13.06;71.36
68450;SHT30;67758;39.572;2.652;2023-12-20T09:06:09;13.11;71.15
68450;SHT30;67758;39.572;2.652;2023-12-20T09:08:53;13.07;71.72
68450;SHT30;67758;39.572;2.652;2023-12-20T09:11:38;13.14;71.87
68450;SHT30;67758;39.572;2.652;2023-12-20T09:14:22;13.15;70.35
68450;SHT30;67758;39.572;2.652;2023-12-20T09:17:06;13.21;67.23
68450;SHT30;67758;39.572;2.652;2023-12-20T09:19:52;13.35;67.88
68450;SHT30;67758;39.572;2.652;2023-12-20T09:22:37;13.45;67.84
68450;SHT30;67758;39.572;2.652;2023-12-20T09:25:23;13.64;65.01
68450;SHT30;67758;39.572;2.652;2023-12-20T09:28:08;13.87;62.57
68450;SHT30;67758;39.572;2.652;2023-12-20T09:30:52;14.05;61.59
68450;SHT30;67758;39.572;2.652;2023-12-20T09:33:37;14.23;60.84
68450;SHT30;67758;39.572;2.652;2023-12-20T09:36:21;14.23;61.77
68450;SHT30;67758;39.572;2.652;2023-12-20T09:39:05;14.33;63.29
68450;SHT30;67758;39.572;2.652;2023-12-20T09:42:03;14.23;64.80
68450;SHT30;67758;39.572;2.652;2023-12-20T09:44:48;14.25;65.87
68450;SHT30;67758;39.572;2.652;2023-12-20T09:47:32;14.17;66.49
68450;SHT30;67758;39.572;2.652;2023-12-20T09:50:18;14.26;66.65
68450;SHT30;67758;39.572;2.652;2023-12-20T09:53:04;14.43;66.63
68450;SHT30;67758;39.572;2.652;2023-12-20T09:55:49;14.51;66.35
68450;SHT30;67758;39.572;2.652;2023-12-20T09:58:37;14.38;66.52
68450;SHT30;67758;39.572;2.652;2023-12-20T10:01:22;14.41;66.02
68450;SHT30;67758;39.572;2.652;2023-12-20T10:04:12;14.51;65.93
68450;SHT30;67758;39.572;2.652;2023-12-20T10:06:57;14.80;65.72
68450;SHT30;67758;39.572;2.652;2023-12-20T10:09:47;15.17;64.75
68450;SHT30;67758;39.572;2.652;2023-12-20T10:12:31;15.32;63.38
68450;SHT30;67758;39.572;2.652;2023-12-20T10:15:16;15.40;62.59
68450;SHT30;67758;39.572;2.652;2023-12-20T10:18:01;15.65;62.55
68450;SHT30;67758;39.572;2.652;2023-12-20T10:20:46;15.86;62.21
68450;SHT30;67758;39.572;2.652;2023-12-20T10:23:30;16.10;62.59
68450;SHT30;67758;39.572;2.652;2023-12-20T10:26:25;16.31;63.20
68450;SHT30;67758;39.572;2.652;2023-12-20T10:29:10;17.20;61.04
68450;SHT30;67758;39.572;2.652;2023-12-20T10:31:54;18.65;57.70
68450;SHT30;67758;39.572;2.652;2023-12-20T10:34:41;18.38;57.40
68450;SHT30;67758;39.572;2.652;2023-12-20T10:37:26;18.06;58.51
68450;SHT30;67758;39.572;2.652;2023-12-20T10:40:12;17.97;59.16
68450;SHT30;67758;39.572;2.652;2023-12-20T10:42:58;17.75;59.11
68450;SHT30;67758;39.572;2.652;2023-12-20T10:45:42;17.24;59.86
68450;SHT30;67758;39.572;2.652;2023-12-20T10:48:30;16.60;61.82
68450;SHT30;67758;39.572;2.652;2023-12-20T10:51:17;16.82;62.03
68450;SHT30;67758;39.572;2.652;2023-12-20T10:54:03;17.54;59.69
68450;SHT30;67758;39.572;2.652;2023-12-20T10:56:49;17.95;58.05
68450;SHT30;67758;39.572;2.652;2023-12-20T10:59:43;18.01;58.56
68450;SHT30;67758;39.572;2.652;2023-12-20T11:02:32;18.12;57.16
68450;SHT30;67758;39.572;2.652;2023-12-20T11:11:26;19.11;55.19
68450;SHT30;67758;39.572;2.652;2023-12-20T11:14:21;19.06;55.14
68450;SHT30;67758;39.572;2.652;2023-12-20T11:17:10;19.40;53.77
68450;SHT30;67758;39.572;2.652;2023-12-20T11:22:52;19.77;53.99
68450;SHT30;67758;39.572;2.652;2023-12-20T11:26:04;20.34;52.11
68450;SHT30;67758;39.572;2.652;2023-12-20T11:28:48;21.00;50.81
68450;SHT30;67758;39.572;2.652;2023-12-20T11:31:40;21.53;49.81
68450;SHT30;67758;39.572;2.652;2023-12-20T11:34:27;20.73;51.39
68450;SHT30;67758;39.572;2.652;2023-12-20T11:37:14;20.34;52.59
68450;SHT30;67758;39.572;2.652;2023-12-20T11:42:49;20.67;52.24
68450;SHT30;67758;39.572;2.652;2023-12-20T11:45:49;20.87;51.38
68450;SHT30;67758;39.572;2.652;2023-12-20T11:48:40;21.24;50.44
68450;SHT30;67758;39.572;2.652;2023-12-20T11:51:24;21.62;50.24
68450;SHT30;67758;39.572;2.652;2023-12-20T11:54:08;22.18;49.14
68450;SHT30;67758;39.572;2.652;2023-12-20T11:56:54;22.27;48.12
68450;SHT30;67758;39.572;2.652;2023-12-20T11:59:39;21.46;49.38
68450;SHT30;67758;39.572;2.652;2023-12-20T12:02:23;20.43;51.64
68450;SHT30;67758;39.572;2.652;2023-12-20T12:05:08;19.99;52.11
68450;SHT30;67758;39.572;2.652;2023-12-20T12:07:52;20.70;51.07
68450;SHT30;67758;39.572;2.652;2023-12-20T12:10:37;21.35;47.53
68450;SHT30;67758;39.572;2.652;2023-12-20T12:13:22;21.67;47.56
68450;SHT30;67758;39.572;2.652;2023-12-20T12:16:09;22.65;46.37
68450;SHT30;67758;39.572;2.652;2023-12-20T12:18:58;22.54;46.69
68450;SHT30;67758;39.572;2.652;2023-12-20T12:21:42;21.25;49.00
68450;SHT30;67758;39.572;2.652;2023-12-20T12:24:27;21.73;49.03
68450;SHT30;67758;39.572;2.652;2023-12-20T12:27:14;22.41;45.79
68450;SHT30;67758;39.572;2.652;2023-12-20T12:30:04;22.03;46.07
68450;SHT30;67758;39.572;2.652;2023-12-20T12:33:04;22.13;45.27
68450;SHT30;67758;39.572;2.652;2023-12-20T12:35:55;21.95;45.33
68450;SHT30;67758;39.572;2.652;2023-12-20T12:38:41;21.69;47.77
68450;SHT30;67758;39.572;2.652;2023-12-20T12:41:25;21.14;48.93
68450;SHT30;67758;39.572;2.652;2023-12-20T12:44:13;20.60;50.25
68450;SHT30;67758;39.572;2.652;2023-12-20T12:47:00;19.08;53.21
68450;SHT30;67758;39.572;2.652;2023-12-20T12:49:47;18.60;55.61
68450;SHT30;67758;39.572;2.652;2023-12-20T12:52:32;17.90;58.03
68450;SHT30;67758;39.572;2.652;2023-12-20T12:55:16;17.71;58.88
68450;SHT30;67758;39.572;2.652;2023-12-20T12:58:02;17.95;58.62
68450;SHT30;67758;39.572;2.652;2023-12-20T13:00:49;17.51;59.42
68450;SHT30;67758;39.572;2.652;2023-12-20T13:03:35;17.40;60.01
68450;SHT30;67758;39.572;2.652;2023-12-20T13:06:20;17.24;60.82
68450;SHT30;67758;39.572;2.652;2023-12-20T13:09:04;16.92;61.73
68450;SHT30;67758;39.572;2.652;2023-12-20T13:12:08;16.82;62.19
68450;SHT30;67758;39.572;2.652;2023-12-20T13:14:53;17.05;62.05
68450;SHT30;67758;39.572;2.652;2023-12-20T13:17:37;17.18;61.56
68450;SHT30;67758;39.572;2.652;2023-12-20T13:20:22;17.30;61.38
68450;SHT30;67758;39.572;2.652;2023-12-20T13:23:06;17.29;61.12
68450;SHT30;67758;39.572;2.652;2023-12-20T13:25:52;17.43;61.32
68450;SHT30;67758;39.572;2.652;2023-12-20T13:28:36;17.57;61.10
68450;SHT30;67758;39.572;2.652;2023-12-20T13:31:21;17.93;59.93
68450;SHT30;67758;39.572;2.652;2023-12-20T13:34:06;18.25;59.13
68450;SHT30;67758;39.572;2.652;2023-12-20T13:36:53;18.77;57.87
68450;SHT30;67758;39.572;2.652;2023-12-20T13:39:44;18.72;57.10
68450;SHT30;67758;39.572;2.652;2023-12-20T13:42:31;18.77;57.07
68450;SHT30;67758;39.572;2.652;2023-12-20T13:45:16;18.57;57.02
68450;SHT30;67758;39.572;2.652;2023-12-20T13:48:00;18.66;57.02
68450;SHT30;67758;39.572;2.652;2023-12-20T13:50:44;18.59;57.29
68450;SHT30;67758;39.572;2.652;2023-12-20T13:53:28;18.56;57.61
68450;SHT30;67758;39.572;2.652;2023-12-20T13:56:13;18.80;57.07
68450;SHT30;67758;39.572;2.652;2023-12-20T13:58:59;18.60;57.64
68450;SHT30;67758;39.572;2.652;2023-12-20T14:01:45;18.55;58.36
68450;SHT30;67758;39.572;2.652;2023-12-20T14:04:29;18.11;59.45
68450;SHT30;67758;39.572;2.652;2023-12-20T14:07:14;18.14;59.80
68450;SHT30;67758;39.572;2.652;2023-12-20T14:09:59;17.83;59.84
68450;SHT30;67758;39.572;2.652;2023-12-20T14:12:43;17.60;60.60
68450;SHT30;67758;39.572;2.652;2023-12-20T14:15:28;17.30;61.34
68450;SHT30;67758;39.572;2.652;2023-12-20T14:18:13;17.11;62.47
68450;SHT30;67758;39.572;2.652;2023-12-20T14:20:58;16.99;62.74
68450;SHT30;67758;39.572;2.652;2023-12-20T14:23:43;16.95;62.85
68450;SHT30;67758;39.572;2.652;2023-12-20T14:26:27;16.82;62.86
68450;SHT30;67758;39.572;2.652;2023-12-20T14:29:12;16.72;63.19
68450;SHT30;67758;39.572;2.652;2023-12-20T14:31:56;16.61;64.17
68450;SHT30;67758;39.572;2.652;2023-12-20T14:34:40;16.34;65.69
68450;SHT30;67758;39.572;2.652;2023-12-20T14:37:24;16.32;66.09
68450;SHT30;67758;39.572;2.652;2023-12-20T14:40:08;16.28;66.31
68450;SHT30;67758;39.572;2.652;2023-12-20T14:42:58;16.09;67.14
68450;SHT30;67758;39.572;2.652;2023-12-20T14:45:44;16.01;67.60
68450;SHT30;67758;39.572;2.652;2023-12-20T14:48:28;15.96;67.91
68450;SHT30;67758;39.572;2.652;2023-12-20T14:51:13;15.96;68.03
68450;SHT30;67758;39.572;2.652;2023-12-20T14:53:57;15.85;68.21
68450;SHT30;67758;39.572;2.652;2023-12-20T14:56:41;15.90;68.09
68450;SHT30;67758;39.572;2.652;2023-12-20T14:59:26;15.87;68.18
68450;SHT30;67758;39.572;2.652;2023-12-20T15:02:10;15.90;68.26
68450;SHT30;67758;39.572;2.652;2023-12-20T15:04:56;15.90;68.31
68450;SHT30;67758;39.572;2.652;2023-12-20T15:07:40;15.82;68.64
68450;SHT30;67758;39.572;2.652;2023-12-20T15:10:26;15.73;68.81
68450;SHT30;67758;39.572;2.652;2023-12-20T15:13:10;15.70;68.92
68450;SHT30;67758;39.572;2.652;2023-12-20T15:15:56;15.67;69.21
68450;SHT30;67758;39.572;2.652;2023-12-20T15:18:41;15.58;69.54
68450;SHT30;67758;39.572;2.652;2023-12-20T15:21:26;15.59;69.68
68450;SHT30;67758;39.572;2.652;2023-12-20T15:24:16;15.56;69.88
68450;SHT30;67758;39.572;2.652;2023-12-20T15:27:03;15.50;70.15
68450;SHT30;67758;39.572;2.652;2023-12-20T15:29:51;15.43;70.42
68450;SHT30;67758;39.572;2.652;2023-12-20T15:32:41;15.36;70.68
68450;SHT30;67758;39.572;2.652;2023-12-20T15:35:25;15.32;70.97
68450;SHT30;67758;39.572;2.652;2023-12-20T15:38:09;15.31;71.11
68450;SHT30;67758;39.572;2.652;2023-12-20T15:40:53;15.21;71.44
68450;SHT30;67758;39.572;2.652;2023-12-20T15:43:39;15.14;71.59
68450;SHT30;67758;39.572;2.652;2023-12-20T15:46:23;15.15;71.76
68450;SHT30;67758;39.572;2.652;2023-12-20T15:49:07;15.11;71.95
68450;SHT30;67758;39.572;2.652;2023-12-20T15:51:52;15.09;72.05
68450;SHT30;67758;39.572;2.652;2023-12-20T15:54:36;15.07;72.19
68450;SHT30;67758;39.572;2.652;2023-12-20T15:57:22;15.01;72.30
68450;SHT30;67758;39.572;2.652;2023-12-20T16:00:07;15.01;72.34
68450;SHT30;67758;39.572;2.652;2023-12-20T16:02:52;14.97;72.40
68450;SHT30;67758;39.572;2.652;2023-12-20T16:05:37;14.95;72.42
68450;SHT30;67758;39.572;2.652;2023-12-20T16:08:21;14.99;72.41
68450;SHT30;67758;39.572;2.652;2023-12-20T16:11:05;14.92;72.51
68450;SHT30;67758;39.572;2.652;2023-12-20T16:13:50;14.92;72.39
68450;SHT30;67758;39.572;2.652;2023-12-20T16:16:35;14.88;72.41
68450;SHT30;67758;39.572;2.652;2023-12-20T16:19:19;14.84;72.51
68450;SHT30;67758;39.572;2.652;2023-12-20T16:22:04;14.87;72.57
68450;SHT30;67758;39.572;2.652;2023-12-20T16:24:48;14.84;72.68
68450;SHT30;67758;39.572;2.652;2023-12-20T16:27:34;14.81;72.69
68450;SHT30;67758;39.572;2.652;2023-12-20T16:30:18;14.80;72.68
68450;SHT30;67758;39.572;2.652;2023-12-20T16:33:03;14.76;72.61
68450;SHT30;67758;39.572;2.652;2023-12-20T16:35:47;14.81;72.54
68450;SHT30;67758;39.572;2.652;2023-12-20T16:38:31;14.76;72.35
68450;SHT30;67758;39.572;2.652;2023-12-20T16:41:15;14.78;72.35
68450;SHT30;67758;39.572;2.652;2023-12-20T16:43:59;14.74;72.43
68450;SHT30;67758;39.572;2.652;2023-12-20T16:46:43;14.71;72.61
68450;SHT30;67758;39.572;2.652;2023-12-20T16:49:27;14.64;72.71
68450;SHT30;67758;39.572;2.652;2023-12-20T16:52:11;14.59;72.84
68450;SHT30;67758;39.572;2.652;2023-12-20T16:54:55;14.54;72.97
68450;SHT30;67758;39.572;2.652;2023-12-20T16:57:39;14.54;73.00
68450;SHT30;67758;39.572;2.652;2023-12-20T17:00:24;14.53;72.98
68450;SHT30;67758;39.572;2.652;2023-12-20T17:03:10;14.50;72.89
68450;SHT30;67758;39.572;2.652;2023-12-20T17:05:55;14.50;72.72
68450;SHT30;67758;39.572;2.652;2023-12-20T17:08:40;14.48;72.89
68450;SHT30;67758;39.572;2.652;2023-12-20T17:11:24;14.44;72.82
68450;SHT30;67758;39.572;2.652;2023-12-20T17:14:08;14.44;72.79
68450;SHT30;67758;39.572;2.652;2023-12-20T17:16:54;14.44;72.82
68450;SHT30;67758;39.572;2.652;2023-12-20T17:19:41;14.44;72.74
68450;SHT30;67758;39.572;2.652;2023-12-20T17:22:25;14.41;72.91
68450;SHT30;67758;39.572;2.652;2023-12-20T17:25:10;14.41;72.86
68450;SHT30;67758;39.572;2.652;2023-12-20T17:27:55;14.41;72.74
68450;SHT30;67758;39.572;2.652;2023-12-20T17:30:40;14.38;72.94
68450;SHT30;67758;39.572;2.652;2023-12-20T17:33:24;14.37;73.14
68450;SHT30;67758;39.572;2.652;2023-12-20T17:36:08;14.30;73.35
68450;SHT30;67758;39.572;2.652;2023-12-20T17:38:54;14.30;73.36
68450;SHT30;67758;39.572;2.652;2023-12-20T17:41:39;14.26;73.10